Time;durP1;ratioP1;P1;durP2;ratioP2;P2;SDS_P1;SDS_P2;PMS_P1;PMS_P2;Temp;Humidity;BMP_temperature;BMP_pressure;BME280_temperature;BME280_humidity;BME280_pressure;Samples;Min_cycle;Max_cycle;Signal;HPM_P1;HPM_P2
2022/03/18 00:02:09;;;;;;;12.15;5.28;;;5.50;99.90;;;;;;5093829;28;20130;-64
2022/03/18 00:04:34;;;;;;;14.82;5.05;;;5.60;99.90;;;;;;5093977;28;20126;-65
2022/03/18 00:07:01;;;;;;;13.50;5.15;;;5.50;99.90;;;;;;5111728;28;20388;-64
2022/03/18 00:09:26;;;;;;;11.93;5.40;;;5.50;99.90;;;;;;5093185;28;20055;-65
2022/03/18 00:11:52;;;;;;;13.32;4.90;;;5.50;99.90;;;;;;5111299;28;20044;-65
2022/03/18 00:14:19;;;;;;;15.35;5.13;;;5.50;99.90;;;;;;5093208;28;20065;-64
2022/03/18 00:16:45;;;;;;;15.20;5.53;;;5.50;99.90;;;;;;5093586;28;20051;-64
2022/03/18 00:19:12;;;;;;;19.65;6.07;;;5.40;99.90;;;;;;5093329;28;20086;-70
2022/03/18 00:21:37;;;;;;;18.52;5.28;;;5.40;99.90;;;;;;5111945;28;20043;-64
2022/03/18 00:24:04;;;;;;;12.80;5.00;;;5.40;99.90;;;;;;5111737;28;20049;-64
2022/03/18 00:26:30;;;;;;;16.50;5.55;;;5.30;99.90;;;;;;5093352;28;20400;-65
2022/03/18 00:28:56;;;;;;;17.63;5.88;;;5.30;99.90;;;;;;5111981;28;20044;-64
2022/03/18 00:31:22;;;;;;;15.50;6.00;;;5.40;99.90;;;;;;5111485;28;20059;-65
2022/03/18 00:33:48;;;;;;;15.38;5.38;;;5.30;99.90;;;;;;5093255;28;20048;-64
2022/03/18 00:36:14;;;;;;;17.90;6.40;;;5.30;99.90;;;;;;5111211;28;20047;-70
2022/03/18 00:38:39;;;;;;;16.95;5.78;;;5.30;99.90;;;;;;5111578;28;20043;-64
2022/03/18 00:41:06;;;;;;;18.15;6.22;;;5.20;99.90;;;;;;5093354;28;20104;-64
2022/03/18 00:43:32;;;;;;;22.17;7.38;;;5.20;99.90;;;;;;5093001;28;20039;-64
2022/03/18 00:45:57;;;;;;;19.73;7.00;;;5.20;99.90;;;;;;5093574;28;20050;-64
2022/03/18 00:53:53;;;;;;;16.33;6.90;;;5.20;99.90;;;;;;5111754;28;20079;-64
2022/03/18 00:56:19;;;;;;;19.08;7.07;;;5.10;99.90;;;;;;5110876;28;20055;-64
2022/03/18 00:58:45;;;;;;;18.90;6.90;;;5.10;99.90;;;;;;5111268;28;20541;-65
2022/03/18 01:01:11;;;;;;;15.80;6.50;;;5.10;99.90;;;;;;5111478;28;20051;-65
2022/03/18 01:03:37;;;;;;;14.63;6.78;;;5.10;99.90;;;;;;5111374;28;20476;-64
2022/03/18 01:06:03;;;;;;;17.58;6.40;;;5.10;99.90;;;;;;5111346;28;20130;-65
2022/03/18 01:08:29;;;;;;;14.45;6.97;;;5.10;99.90;;;;;;5110724;28;20040;-65
2022/03/18 01:10:55;;;;;;;21.25;7.07;;;5.10;99.90;;;;;;5111235;28;20040;-64
2022/03/18 01:13:21;;;;;;;19.52;7.47;;;5.10;99.90;;;;;;5111144;28;20145;-63
2022/03/18 01:15:47;;;;;;;20.23;6.85;;;5.10;99.90;;;;;;5092932;28;20040;-63
2022/03/18 01:18:14;;;;;;;12.68;6.05;;;5.00;99.90;;;;;;5093439;28;20050;-63
2022/03/18 01:20:40;;;;;;;14.55;6.53;;;5.10;99.90;;;;;;5110862;28;20048;-64
2022/03/18 01:23:06;;;;;;;15.52;6.47;;;5.00;99.90;;;;;;5096861;28;20549;-64
2022/03/18 01:25:35;;;;;;;13.10;6.57;;;5.00;99.90;;;;;;5114752;28;20092;-63
2022/03/18 01:28:06;;;;;;;15.52;6.35;;;5.00;99.90;;;;;;5114812;28;20614;-64
2022/03/18 01:30:32;;;;;;;16.40;6.43;;;5.00;99.90;;;;;;5096684;28;20055;-64
2022/03/18 01:33:02;;;;;;;18.40;5.82;;;5.00;99.90;;;;;;5115024;28;20062;-63
2022/03/18 01:35:29;;;;;;;14.50;5.70;;;5.00;99.90;;;;;;5114508;28;20040;-64
2022/03/18 01:37:55;;;;;;;13.15;5.93;;;5.00;99.90;;;;;;5096682;28;20065;-63
2022/03/18 01:40:21;;;;;;;13.07;5.82;;;5.00;99.90;;;;;;5079879;28;20054;-65
2022/03/18 01:42:47;;;;;;;14.27;6.43;;;5.00;99.90;;;;;;5114472;28;20048;-65
2022/03/18 01:45:13;;;;;;;14.50;6.05;;;5.10;99.90;;;;;;5096431;28;20590;-64
2022/03/18 01:47:43;;;;;;;13.57;6.35;;;5.00;99.90;;;;;;5114295;28;20047;-64
2022/03/18 01:50:14;;;;;;;15.50;6.03;;;5.10;99.90;;;;;;5097394;28;20057;-64
2022/03/18 01:52:42;;;;;;;14.38;5.95;;;5.10;99.90;;;;;;5114312;28;20410;-65
2022/03/18 01:55:08;;;;;;;17.75;7.32;;;5.10;99.90;;;;;;5114640;28;20054;-64
2022/03/18 01:57:33;;;;;;;14.23;6.32;;;5.10;99.90;;;;;;5095410;28;20496;-65
2022/03/18 01:59:59;;;;;;;13.32;6.28;;;5.10;99.90;;;;;;5114464;28;20412;-64
2022/03/18 02:02:25;;;;;;;13.50;5.97;;;5.10;99.90;;;;;;5095931;28;20389;-64
2022/03/18 02:04:51;;;;;;;13.60;6.38;;;5.00;99.90;;;;;;5114516;28;20047;-66
2022/03/18 02:07:17;;;;;;;12.48;6.20;;;5.00;99.90;;;;;;5114328;28;20055;-65
2022/03/18 02:09:47;;;;;;;17.00;6.95;;;5.00;99.90;;;;;;5095784;28;20389;-64
2022/03/18 02:12:13;;;;;;;12.50;6.05;;;5.00;99.90;;;;;;5114202;28;20401;-65
2022/03/18 02:14:43;;;;;;;13.32;5.78;;;4.90;99.90;;;;;;5113838;28;20050;-65
2022/03/18 02:17:11;;;;;;;16.67;6.55;;;5.00;99.90;;;;;;5114249;28;20076;-64
2022/03/18 02:19:38;;;;;;;13.35;6.72;;;4.90;99.90;;;;;;5095221;28;20497;-63
2022/03/18 02:22:09;;;;;;;16.33;6.60;;;4.90;99.90;;;;;;5113975;28;20047;-63
2022/03/18 02:24:37;;;;;;;18.73;6.30;;;4.90;99.90;;;;;;5078446;28;20485;-64
2022/03/18 02:27:03;;;;;;;18.20;6.05;;;4.90;99.90;;;;;;5113902;28;20040;-65
2022/03/18 02:29:29;;;;;;;12.50;5.32;;;5.00;99.90;;;;;;5095290;28;20078;-64
2022/03/18 02:31:54;;;;;;;14.32;5.55;;;5.00;99.90;;;;;;5114049;28;20153;-63
2022/03/18 02:34:20;;;;;;;12.48;5.18;;;5.00;99.90;;;;;;5112858;28;20054;-64
2022/03/18 02:36:46;;;;;;;11.13;5.38;;;5.00;99.90;;;;;;5113435;28;20093;-65
2022/03/18 02:39:12;;;;;;;14.60;5.72;;;5.00;99.90;;;;;;5113945;28;20047;-65
2022/03/18 02:41:38;;;;;;;10.70;5.07;;;5.00;99.90;;;;;;5113400;28;20387;-64
2022/03/18 02:44:04;;;;;;;13.68;5.35;;;5.00;99.90;;;;;;5078763;28;20044;-65
2022/03/18 02:46:32;;;;;;;11.57;5.07;;;5.00;99.90;;;;;;5113089;28;20572;-64
2022/03/18 02:49:00;;;;;;;13.77;5.70;;;5.10;99.90;;;;;;5113585;28;20055;-65
2022/03/18 02:51:27;;;;;;;10.98;5.97;;;5.10;99.90;;;;;;5113442;28;20050;-64
2022/03/18 02:53:53;;;;;;;15.27;6.28;;;5.00;99.90;;;;;;5113379;28;20468;-66
2022/03/18 02:56:19;;;;;;;10.90;6.15;;;5.00;99.90;;;;;;5094517;28;20047;-64
2022/03/18 02:58:45;;;;;;;14.18;6.28;;;5.00;99.90;;;;;;5112956;28;20091;-64
2022/03/18 03:01:10;;;;;;;14.85;6.22;;;5.20;99.90;;;;;;5078301;28;20102;-64
2022/03/18 03:03:36;;;;;;;11.75;5.88;;;5.00;99.90;;;;;;5094821;28;20142;-64
2022/03/18 03:08:46;;;;;;;16.73;6.55;;;4.90;99.90;;;;;;5094950;28;20138;-64
2022/03/18 03:11:12;;;;;;;15.35;7.28;;;4.90;99.90;;;;;;5113082;28;20548;-64
2022/03/18 03:13:37;;;;;;;11.40;6.88;;;4.90;99.90;;;;;;5112799;28;20040;-67
2022/03/18 03:16:04;;;;;;;12.68;6.63;;;4.80;99.90;;;;;;5113171;28;20131;-64
2022/03/18 03:18:29;;;;;;;13.50;7.10;;;4.80;99.90;;;;;;5094962;28;20060;-64
2022/03/18 03:20:58;;;;;;;12.02;5.90;;;4.80;99.90;;;;;;5094385;28;20088;-64
2022/03/18 03:23:25;;;;;;;17.10;6.25;;;4.80;99.90;;;;;;5112812;28;20172;-63
2022/03/18 03:25:55;;;;;;;16.23;6.40;;;4.80;99.90;;;;;;5094358;28;20397;-63
2022/03/18 03:28:21;;;;;;;13.07;6.40;;;4.70;99.90;;;;;;5112815;28;20043;-63
2022/03/18 03:30:48;;;;;;;11.27;5.75;;;4.70;99.90;;;;;;5094412;28;20050;-63
2022/03/18 03:33:14;;;;;;;13.50;6.70;;;4.70;99.90;;;;;;5061400;28;20401;-64
2022/03/18 03:35:41;;;;;;;12.60;6.18;;;4.80;99.90;;;;;;5112211;28;20051;-64
2022/03/18 03:38:07;;;;;;;17.63;6.93;;;4.80;99.90;;;;;;5094607;28;20374;-64
2022/03/18 03:40:33;;;;;;;10.63;6.00;;;4.80;99.90;;;;;;5112503;28;20107;-64
2022/03/18 03:42:59;;;;;;;16.23;6.68;;;4.80;99.90;;;;;;5112168;28;20469;-66
2022/03/18 03:45:25;;;;;;;15.10;6.25;;;4.80;99.90;;;;;;5112253;28;20080;-64
2022/03/18 03:47:51;;;;;;;13.82;6.03;;;4.90;99.90;;;;;;5112124;28;20043;-64
2022/03/18 03:50:17;;;;;;;8.88;5.53;;;4.90;99.90;;;;;;5094254;28;20052;-64
2022/03/18 03:52:44;;;;;;;21.13;6.65;;;4.90;99.90;;;;;;5111999;28;20078;-63
2022/03/18 03:55:12;;;;;;;13.13;6.68;;;4.90;99.90;;;;;;5112457;28;20085;-66
2022/03/18 03:57:39;;;;;;;12.50;6.82;;;5.00;99.90;;;;;;5073351;28;20121;-72
2022/03/18 04:00:06;;;;;;;15.10;5.95;;;5.00;99.90;;;;;;5092104;28;20047;-65
2022/03/18 04:02:32;;;;;;;13.25;6.60;;;5.00;99.90;;;;;;5090799;28;20040;-63
2022/03/18 04:04:58;;;;;;;14.18;6.32;;;5.00;99.90;;;;;;5091455;28;20044;-66
2022/03/18 04:07:26;;;;;;;15.30;6.03;;;5.10;99.90;;;;;;5090571;28;20435;-64
2022/03/18 04:09:56;;;;;;;12.02;5.82;;;5.10;99.90;;;;;;5091568;28;20051;-64
2022/03/18 04:12:22;;;;;;;11.35;6.68;;;5.10;99.90;;;;;;5091784;28;20044;-64
2022/03/18 04:14:51;;;;;;;14.20;6.82;;;5.10;99.90;;;;;;5091453;28;20147;-64
2022/03/18 04:17:17;;;;;;;13.57;5.88;;;5.20;99.90;;;;;;5091520;28;20091;-64
2022/03/18 04:19:42;;;;;;;10.25;5.93;;;5.20;99.90;;;;;;5090131;28;20076;-64
2022/03/18 04:22:08;;;;;;;13.73;6.20;;;5.30;99.90;;;;;;5091376;28;20131;-64
2022/03/18 04:24:34;;;;;;;17.88;6.88;;;5.30;99.90;;;;;;5090510;28;20050;-64
2022/03/18 04:27:00;;;;;;;13.00;6.75;;;5.40;99.90;;;;;;5090094;28;20054;-65
2022/03/18 04:29:26;;;;;;;16.38;6.35;;;5.40;99.90;;;;;;5073406;28;20052;-65
2022/03/18 04:31:52;;;;;;;18.63;6.78;;;5.40;99.90;;;;;;5089774;28;20047;-64
2022/03/18 04:34:18;;;;;;;14.50;6.82;;;5.40;99.90;;;;;;5090453;28;20091;-65
2022/03/18 04:36:44;;;;;;;12.70;6.47;;;5.40;99.90;;;;;;5091028;28;20078;-65
2022/03/18 04:39:10;;;;;;;9.98;6.10;;;5.50;99.90;;;;;;5091549;28;20040;-64
2022/03/18 04:41:36;;;;;;;17.52;7.35;;;5.50;99.90;;;;;;5090359;28;20123;-67
2022/03/18 04:44:03;;;;;;;12.70;7.03;;;5.50;99.90;;;;;;5089868;28;20055;-64
2022/03/18 04:46:31;;;;;;;10.48;6.43;;;5.50;99.90;;;;;;5091420;28;20494;-64
2022/03/18 04:48:59;;;;;;;12.77;6.75;;;5.50;99.90;;;;;;5091069;28;20481;-64
2022/03/18 04:51:25;;;;;;;10.55;6.05;;;5.60;99.90;;;;;;5091441;28;20059;-68
2022/03/18 04:53:51;;;;;;;13.15;6.45;;;5.60;99.90;;;;;;5089786;28;20070;-65
2022/03/18 04:59:01;;;;;;;12.00;6.70;;;5.60;99.90;;;;;;5097488;28;20056;-65
2022/03/18 05:01:27;;;;;;;15.23;7.22;;;5.60;99.90;;;;;;5097608;28;20050;-65
2022/03/18 05:03:53;;;;;;;15.55;7.88;;;5.60;99.90;;;;;;5115252;28;20043;-64
2022/03/18 05:06:19;;;;;;;12.25;7.07;;;5.60;99.90;;;;;;5097335;28;20144;-64
2022/03/18 05:08:44;;;;;;;12.95;7.10;;;5.60;99.90;;;;;;5097353;28;20059;-64
2022/03/18 05:11:12;;;;;;;12.35;7.05;;;5.50;99.90;;;;;;5115258;28;20050;-63
2022/03/18 05:13:38;;;;;;;10.52;7.00;;;5.40;99.90;;;;;;5097563;28;20050;-64
2022/03/18 05:16:05;;;;;;;15.73;7.40;;;5.40;99.90;;;;;;5114948;28;20136;-63
2022/03/18 05:18:31;;;;;;;13.80;7.47;;;5.30;99.90;;;;;;5115349;28;20399;-64
2022/03/18 05:20:57;;;;;;;19.30;9.25;;;5.30;99.90;;;;;;5115162;28;20040;-65
2022/03/18 05:23:23;;;;;;;14.55;8.45;;;5.30;99.90;;;;;;5115264;28;20051;-62
2022/03/18 05:25:49;;;;;;;14.40;7.90;;;5.20;99.90;;;;;;5115265;28;20160;-71
2022/03/18 05:28:15;;;;;;;15.77;8.52;;;5.20;99.90;;;;;;5115087;28;20598;-64
2022/03/18 05:30:40;;;;;;;19.55;8.60;;;5.20;99.90;;;;;;5096378;28;20102;-64
2022/03/18 05:33:06;;;;;;;18.02;8.40;;;5.20;99.90;;;;;;5114986;28;20256;-64
2022/03/18 05:35:32;;;;;;;15.77;8.90;;;5.10;99.90;;;;;;5114778;28;20108;-65
2022/03/18 05:37:58;;;;;;;13.50;8.32;;;5.10;99.90;;;;;;5114282;28;20044;-64
2022/03/18 05:40:24;;;;;;;18.40;9.52;;;5.10;99.90;;;;;;5114754;28;20126;-64
2022/03/18 05:42:50;;;;;;;14.52;8.98;;;5.10;99.90;;;;;;5114580;28;20051;-64
2022/03/18 05:45:16;;;;;;;15.57;9.38;;;5.00;99.90;;;;;;5114358;28;20091;-66
2022/03/18 05:47:42;;;;;;;19.00;9.10;;;5.00;99.90;;;;;;5096268;28;20058;-64
2022/03/18 05:50:09;;;;;;;16.70;9.98;;;5.00;99.90;;;;;;5114366;28;20416;-64
2022/03/18 05:52:36;;;;;;;16.45;8.77;;;5.00;99.90;;;;;;5079741;28;20271;-64
2022/03/18 05:55:02;;;;;;;15.80;9.55;;;5.00;99.90;;;;;;5113981;28;20043;-63
2022/03/18 05:57:29;;;;;;;15.55;9.93;;;5.00;99.90;;;;;;5113875;28;20064;-64
2022/03/18 05:59:57;;;;;;;18.60;9.63;;;5.00;99.90;;;;;;5096164;28;20467;-64
2022/03/18 06:02:23;;;;;;;19.50;9.85;;;5.00;99.90;;;;;;5114413;28;20130;-65
2022/03/18 06:04:49;;;;;;;17.45;8.88;;;5.00;99.90;;;;;;5079307;28;20043;-66
2022/03/18 06:07:15;;;;;;;15.68;9.68;;;5.00;99.90;;;;;;5113320;28;20036;-64
2022/03/18 06:12:26;;;;;;;17.60;9.50;;;5.00;99.90;;;;;;5098776;28;20058;-64
2022/03/18 06:14:51;;;;;;;19.88;9.93;;;5.10;99.90;;;;;;5095414;28;20396;-64
2022/03/18 06:17:17;;;;;;;15.40;9.23;;;5.10;99.90;;;;;;5095290;28;20036;-64
2022/03/18 06:19:43;;;;;;;21.00;9.65;;;5.20;99.90;;;;;;5095708;28;20097;-64
2022/03/18 06:22:09;;;;;;;17.60;10.63;;;5.20;99.90;;;;;;5095221;28;20440;-63
2022/03/18 06:24:35;;;;;;;16.77;9.90;;;5.20;99.90;;;;;;5095428;28;20047;-65
2022/03/18 06:27:02;;;;;;;17.80;10.00;;;5.20;99.90;;;;;;5078630;28;20044;-64
2022/03/18 06:29:29;;;;;;;18.92;10.55;;;5.30;99.90;;;;;;5113736;28;20043;-64
2022/03/18 06:31:56;;;;;;;18.00;10.93;;;5.30;99.90;;;;;;5095471;28;20047;-64
2022/03/18 06:34:22;;;;;;;19.30;10.95;;;5.40;99.90;;;;;;5095094;28;20130;-65
2022/03/18 06:36:53;;;;;;;20.73;10.48;;;5.40;99.90;;;;;;5095422;28;20035;-64
2022/03/18 06:39:20;;;;;;;24.25;9.98;;;5.40;99.90;;;;;;5113241;28;20132;-65
2022/03/18 06:41:46;;;;;;;18.23;10.55;;;5.50;99.90;;;;;;5095487;28;20126;-64
2022/03/18 06:44:15;;;;;;;14.63;10.13;;;5.60;99.90;;;;;;5078526;28;20047;-64
2022/03/18 06:46:41;;;;;;;16.65;10.38;;;5.60;99.90;;;;;;5113442;28;20041;-65
2022/03/18 06:49:07;;;;;;;17.95;10.52;;;5.70;99.90;;;;;;5112920;28;20126;-64
2022/03/18 06:51:33;;;;;;;16.75;10.52;;;5.70;99.90;;;;;;5113387;28;20050;-64
2022/03/18 06:53:59;;;;;;;17.65;10.13;;;5.80;99.90;;;;;;5095025;28;20043;-72
2022/03/18 06:56:27;;;;;;;17.73;9.80;;;5.80;99.90;;;;;;5112783;28;20112;-64
2022/03/18 06:58:53;;;;;;;17.63;10.80;;;5.90;99.90;;;;;;5113466;28;20126;-64
2022/03/18 07:01:21;;;;;;;15.32;10.02;;;6.00;99.90;;;;;;5112922;28;20220;-64
2022/03/18 07:03:48;;;;;;;17.05;10.55;;;6.10;99.90;;;;;;5113128;28;20055;-63
2022/03/18 07:06:13;;;;;;;23.35;11.77;;;6.20;99.90;;;;;;5094536;28;20039;-63
2022/03/18 07:08:39;;;;;;;15.75;10.07;;;6.30;99.90;;;;;;5112828;28;20051;-64
2022/03/18 07:11:05;;;;;;;18.20;10.02;;;6.40;99.90;;;;;;5094535;28;20050;-63
2022/03/18 07:13:31;;;;;;;20.90;10.68;;;6.60;99.90;;;;;;5094824;28;20052;-65
2022/03/18 07:17:54;;;;;;;19.85;10.75;;;7.00;99.90;;;;;;5094612;28;20054;-63
2022/03/18 07:18:43;;;;;;;20.13;9.77;;;7.70;99.90;;;;;;5112677;28;20051;-62
2022/03/18 07:21:09;;;;;;;18.73;9.35;;;8.70;99.90;;;;;;5094439;28;20206;-62
2022/03/18 07:23:34;;;;;;;16.25;8.80;;;9.40;99.90;;;;;;5112656;28;20047;-63
2022/03/18 07:26:00;;;;;;;15.98;8.65;;;10.10;99.90;;;;;;5094501;28;20039;-63
2022/03/18 07:28:26;;;;;;;13.18;8.27;;;10.70;99.90;;;;;;5112393;28;20048;-65
2022/03/18 07:30:51;;;;;;;18.27;7.93;;;11.30;99.90;;;;;;5094462;28;20066;-66
2022/03/18 07:33:17;;;;;;;18.08;8.20;;;12.10;99.90;;;;;;5111931;28;20067;-62
2022/03/18 07:35:43;;;;;;;16.83;8.15;;;12.80;99.90;;;;;;5094643;28;20055;-64
2022/03/18 07:38:09;;;;;;;13.73;7.55;;;13.40;99.90;;;;;;5093713;28;20036;-63
2022/03/18 07:40:39;;;;;;;13.55;7.22;;;14.10;99.90;;;;;;5112385;28;20127;-64
2022/03/18 07:43:05;;;;;;;17.30;7.05;;;14.60;99.90;;;;;;5112505;28;20047;-65
2022/03/18 07:45:34;;;;;;;15.25;7.30;;;15.20;99.90;;;;;;5112418;28;20161;-65
2022/03/18 07:48:01;;;;;;;13.40;7.80;;;15.40;99.90;;;;;;5094022;28;20525;-64
2022/03/18 07:50:30;;;;;;;12.45;6.68;;;15.80;99.90;;;;;;5094005;28;20484;-63
2022/03/18 07:52:58;;;;;;;14.18;6.53;;;16.40;99.90;;;;;;5111964;28;20109;-65
2022/03/18 07:55:26;;;;;;;18.83;7.07;;;16.90;99.90;;;;;;5093957;28;20515;-64
2022/03/18 07:57:53;;;;;;;14.63;7.10;;;17.30;99.90;;;;;;5111979;28;20063;-65
2022/03/18 08:00:20;;;;;;;11.75;6.43;;;17.40;99.90;;;;;;5111333;28;20324;-63
2022/03/18 08:02:48;;;;;;;13.02;6.57;;;17.80;99.90;;;;;;5112069;28;20130;-64
2022/03/18 08:05:15;;;;;;;14.43;6.93;;;18.10;98.70;;;;;;5110366;28;20048;-63
2022/03/18 08:07:41;;;;;;;12.30;6.60;;;18.20;97.70;;;;;;5110589;28;20051;-67
2022/03/18 08:10:09;;;;;;;12.93;6.20;;;18.00;98.00;;;;;;5110836;28;20427;-64
2022/03/18 08:12:40;;;;;;;13.40;6.43;;;18.30;98.20;;;;;;5110879;28;20132;-64
2022/03/18 08:15:11;;;;;;;11.82;5.95;;;18.70;97.40;;;;;;5110940;28;20134;-66
2022/03/18 08:17:38;;;;;;;12.68;6.82;;;18.80;96.60;;;;;;5110897;28;20036;-64
2022/03/18 08:20:06;;;;;;;15.43;6.63;;;18.90;96.10;;;;;;5110720;28;20040;-64
2022/03/18 08:22:32;;;;;;;12.43;6.15;;;18.90;96.80;;;;;;5110302;28;20051;-65
2022/03/18 08:24:58;;;;;;;15.23;6.63;;;19.20;96.40;;;;;;5110511;28;20362;-64
2022/03/18 08:27:23;;;;;;;14.27;6.85;;;19.40;95.40;;;;;;5091919;28;20051;-63
2022/03/18 08:29:49;;;;;;;15.98;6.20;;;19.20;95.70;;;;;;5110411;28;20456;-64
2022/03/18 08:32:16;;;;;;;12.95;5.97;;;19.20;95.70;;;;;;5091409;28;20389;-64
2022/03/18 08:34:43;;;;;;;12.57;6.10;;;19.10;96.20;;;;;;5092463;28;20108;-65
2022/03/18 08:37:10;;;;;;;16.15;7.07;;;19.30;95.90;;;;;;5075647;28;20048;-64
2022/03/18 08:39:41;;;;;;;17.23;7.05;;;19.60;95.80;;;;;;5075593;28;20090;-64
2022/03/18 08:42:07;;;;;;;19.05;6.45;;;19.50;95.20;;;;;;5110363;28;20047;-65
2022/03/18 08:44:33;;;;;;;15.57;6.10;;;19.80;95.40;;;;;;5109523;28;20521;-65
2022/03/18 08:46:59;;;;;;;14.43;6.32;;;20.10;94.80;;;;;;5092247;28;20128;-65
2022/03/18 08:49:26;;;;;;;13.07;5.65;;;20.10;94.50;;;;;;5110431;28;20047;-64
2022/03/18 08:51:51;;;;;;;15.10;6.47;;;20.20;94.40;;;;;;5092247;28;20047;-65
2022/03/18 08:54:21;;;;;;;17.27;6.15;;;20.20;94.20;;;;;;5108468;28;20203;-65
2022/03/18 08:56:48;;;;;;;16.00;5.90;;;20.30;93.90;;;;;;5092333;28;20059;-64
2022/03/18 08:59:14;;;;;;;12.43;5.85;;;20.50;93.50;;;;;;5110689;28;20109;-66
2022/03/18 09:01:40;;;;;;;15.00;6.10;;;20.50;93.70;;;;;;5110629;28;20086;-65
2022/03/18 09:04:06;;;;;;;16.25;5.80;;;20.40;93.30;;;;;;5075734;28;20044;-66
2022/03/18 09:06:31;;;;;;;15.40;5.88;;;20.50;93.50;;;;;;5109661;28;20393;-64
2022/03/18 09:09:03;;;;;;;15.00;6.13;;;20.70;94.20;;;;;;5110088;28;20035;-65
2022/03/18 09:11:32;;;;;;;12.35;5.78;;;20.80;93.30;;;;;;5091959;28;20241;-66
2022/03/18 09:13:58;;;;;;;15.48;6.22;;;21.10;93.00;;;;;;5110340;28;20484;-65
2022/03/18 09:16:24;;;;;;;14.50;6.25;;;21.20;92.70;;;;;;5109685;28;20130;-67
2022/03/18 09:18:49;;;;;;;15.07;5.65;;;20.90;92.50;;;;;;5075234;28;20107;-64
2022/03/18 09:21:15;;;;;;;14.40;5.78;;;20.80;92.70;;;;;;5109818;28;20047;-64
2022/03/18 09:23:42;;;;;;;12.93;5.25;;;20.30;93.50;;;;;;5109552;28;20047;-64
2022/03/18 09:26:07;;;;;;;13.43;5.65;;;19.30;93.80;;;;;;5092050;28;20060;-64
2022/03/18 09:28:33;;;;;;;14.77;6.00;;;18.20;95.50;;;;;;5109617;28;20168;-63
2022/03/18 09:30:59;;;;;;;14.05;5.97;;;17.40;97.20;;;;;;5109548;28;20092;-65
2022/03/18 09:33:25;;;;;;;17.95;6.28;;;16.90;99.20;;;;;;5073521;28;20043;-63
2022/03/18 09:35:50;;;;;;;13.52;5.68;;;16.80;99.90;;;;;;5110172;28;20059;-63
2022/03/18 09:38:16;;;;;;;14.05;5.38;;;16.60;99.90;;;;;;5075680;28;20051;-62
2022/03/18 09:40:42;;;;;;;17.38;6.03;;;16.20;99.90;;;;;;5091534;28;20047;-63
2022/03/18 09:43:09;;;;;;;19.52;5.57;;;16.10;99.90;;;;;;5078053;28;20044;-62
2022/03/18 09:45:37;;;;;;;14.63;5.97;;;15.80;99.90;;;;;;5114166;28;20048;-63
2022/03/18 09:48:11;;;;;;;12.50;5.53;;;15.60;99.90;;;;;;5114543;28;20051;-63
2022/03/18 09:50:39;;;;;;;16.90;6.05;;;15.60;99.90;;;;;;5096095;28;20043;-62
2022/03/18 09:53:06;;;;;;;15.18;6.20;;;15.50;99.90;;;;;;5114148;28;20126;-63
2022/03/18 09:55:34;;;;;;;17.70;6.25;;;15.30;99.90;;;;;;5113957;28;20047;-63
2022/03/18 09:58:01;;;;;;;15.20;5.95;;;15.30;99.90;;;;;;5114168;28;20125;-63
2022/03/18 10:00:27;;;;;;;15.82;6.32;;;15.30;99.90;;;;;;5113429;28;20043;-64
2022/03/18 10:03:13;;;;;;;13.40;5.70;;;15.20;99.90;;;;;;5095811;28;20039;-64
2022/03/18 10:05:49;;;;;;;20.50;6.35;;;15.00;99.90;;;;;;5113949;28;20128;-64
2022/03/18 10:08:17;;;;;;;15.07;5.20;;;15.00;99.90;;;;;;5113961;28;20177;-63
2022/03/18 10:10:47;;;;;;;15.20;5.63;;;14.90;99.90;;;;;;5062607;28;20258;-64
2022/03/18 10:13:15;;;;;;;17.10;5.85;;;14.80;99.90;;;;;;5113999;28;20047;-63
2022/03/18 10:15:41;;;;;;;15.02;6.25;;;14.90;99.90;;;;;;5113322;28;20048;-64
2022/03/18 10:18:11;;;;;;;19.80;6.03;;;14.90;99.90;;;;;;5095781;28;20048;-64
2022/03/18 10:20:42;;;;;;;15.93;6.13;;;14.90;99.90;;;;;;5078453;28;20047;-64
2022/03/18 10:23:25;;;;;;;13.40;5.60;;;14.90;99.90;;;;;;5095236;28;20074;-64
2022/03/18 10:25:55;;;;;;;19.23;6.32;;;14.80;99.90;;;;;;5094763;28;20508;-64
2022/03/18 10:28:46;;;;;;;14.52;5.75;;;14.80;99.90;;;;;;5078824;28;20377;-64
2022/03/18 10:31:18;;;;;;;11.48;5.53;;;14.80;99.90;;;;;;5095125;28;20389;-64
2022/03/18 10:39:30;;;;;;;18.50;6.20;;;14.80;99.90;;;;;;5113290;28;20051;-68
2022/03/18 10:42:04;;;;;;;13.15;5.25;;;14.90;99.90;;;;;;5095601;28;20441;-63
2022/03/18 10:44:52;;;;;;;19.98;6.00;;;14.90;99.90;;;;;;5113022;28;20407;-67
2022/03/18 10:47:32;;;;;;;17.35;5.93;;;14.90;99.90;;;;;;5112983;28;20436;-63
2022/03/18 10:50:11;;;;;;;14.43;5.65;;;14.90;99.90;;;;;;5113325;28;20093;-63
2022/03/18 10:53:00;;;;;;;20.42;5.85;;;14.80;99.90;;;;;;5094287;28;20396;-64
2022/03/18 10:55:29;;;;;;;17.65;5.47;;;15.00;99.90;;;;;;5093878;28;20121;-64
2022/03/18 10:57:59;;;;;;;15.38;6.32;;;15.10;99.90;;;;;;5112250;28;20113;-64
2022/03/18 11:00:29;;;;;;;14.50;5.40;;;15.10;99.90;;;;;;5077515;28;20159;-65
2022/03/18 11:02:59;;;;;;;16.90;6.25;;;15.20;99.90;;;;;;5094698;28;20069;-63
2022/03/18 11:05:35;;;;;;;14.80;6.00;;;15.10;99.90;;;;;;5112695;28;20130;-63
2022/03/18 11:08:03;;;;;;;14.07;6.32;;;15.00;99.90;;;;;;5112302;28;20055;-64
2022/03/18 11:13:15;;;;;;;14.32;5.68;;;15.00;99.90;;;;;;5093948;28;20047;-64
2022/03/18 11:15:45;;;;;;;19.00;6.40;;;15.10;99.90;;;;;;5112123;28;20100;-65
2022/03/18 11:18:12;;;;;;;19.25;5.95;;;15.20;99.90;;;;;;5112571;28;20055;-63
2022/03/18 11:20:42;;;;;;;18.33;6.38;;;15.30;99.90;;;;;;5112279;28;20048;-63
2022/03/18 11:23:17;;;;;;;14.38;5.35;;;15.20;99.90;;;;;;5094601;28;20085;-63
2022/03/18 11:26:00;;;;;;;18.58;5.03;;;15.10;99.90;;;;;;5111911;28;20441;-65
2022/03/18 11:28:26;;;;;;;11.38;5.00;;;14.90;99.90;;;;;;5112420;28;20073;-64
2022/03/18 11:31:07;;;;;;;17.15;5.72;;;14.80;99.90;;;;;;5112027;28;20057;-64
2022/03/18 11:33:34;;;;;;;16.33;4.95;;;14.90;99.90;;;;;;5112010;28;20047;-63
2022/03/18 11:36:08;;;;;;;15.18;5.03;;;14.80;99.90;;;;;;5112102;28;20052;-63
2022/03/18 11:38:55;;;;;;;16.02;4.88;;;14.90;99.90;;;;;;5112453;28;20389;-63
2022/03/18 11:41:26;;;;;;;14.20;5.00;;;14.90;99.90;;;;;;5112294;28;20322;-63
2022/03/18 11:43:53;;;;;;;17.02;5.80;;;14.80;99.90;;;;;;5093772;28;20043;-66
2022/03/18 11:46:22;;;;;;;16.00;5.25;;;14.90;99.90;;;;;;5112317;28;20370;-63
2022/03/18 11:48:50;;;;;;;14.57;5.70;;;15.00;99.90;;;;;;5111809;28;20500;-63
2022/03/18 11:51:34;;;;;;;16.77;5.18;;;15.00;99.90;;;;;;5076964;28;20469;-63
2022/03/18 11:54:05;;;;;;;14.60;5.43;;;15.00;99.90;;;;;;5093525;28;20043;-63
2022/03/18 11:56:41;;;;;;;17.15;5.93;;;15.10;99.90;;;;;;5111869;28;20094;-65
2022/03/18 11:59:24;;;;;;;15.32;4.93;;;15.10;99.90;;;;;;5111873;28;20139;-64
2022/03/18 12:02:04;;;;;;;17.80;5.40;;;15.30;99.90;;;;;;5111046;28;20047;-62
2022/03/18 12:04:33;;;;;;;14.10;5.72;;;15.30;99.90;;;;;;5111618;28;20051;-63
2022/03/18 12:07:18;;;;;;;15.68;4.93;;;15.20;99.90;;;;;;5093057;28;20130;-64
2022/03/18 12:09:52;;;;;;;17.05;5.78;;;15.10;99.90;;;;;;5111360;28;20120;-63
2022/03/18 12:12:31;;;;;;;19.85;4.82;;;15.20;99.90;;;;;;5076859;28;20099;-63
2022/03/18 12:15:02;;;;;;;16.33;5.10;;;15.20;99.90;;;;;;5111375;28;20134;-63
2022/03/18 12:17:29;;;;;;;14.90;5.13;;;15.10;99.90;;;;;;5093580;28;20094;-64
2022/03/18 12:19:57;;;;;;;14.35;5.47;;;15.10;99.90;;;;;;5092961;28;20085;-64
2022/03/18 12:22:24;;;;;;;17.60;4.82;;;15.10;99.90;;;;;;5111585;28;20185;-64
2022/03/18 12:24:53;;;;;;;23.15;4.65;;;15.10;99.90;;;;;;5110696;28;20047;-65
2022/03/18 12:27:21;;;;;;;13.93;4.22;;;15.20;99.90;;;;;;5111058;28;20518;-65
2022/03/18 12:29:47;;;;;;;17.50;4.80;;;15.30;99.90;;;;;;5092883;28;20075;-63
2022/03/18 12:32:16;;;;;;;16.65;5.20;;;15.40;99.90;;;;;;5111352;28;20051;-66
2022/03/18 12:35:04;;;;;;;17.83;5.13;;;15.50;99.90;;;;;;5093000;28;20043;-67
2022/03/18 12:37:31;;;;;;;15.48;4.97;;;15.60;99.90;;;;;;5111557;28;20051;-65
2022/03/18 12:40:05;;;;;;;19.08;5.22;;;15.50;99.90;;;;;;5092665;28;20040;-64
2022/03/18 12:42:31;;;;;;;17.20;5.43;;;15.50;99.90;;;;;;5093145;28;20044;-64
2022/03/18 12:45:00;;;;;;;17.60;5.03;;;15.40;99.90;;;;;;5075873;28;20142;-65
2022/03/18 12:47:30;;;;;;;15.73;4.53;;;15.30;99.90;;;;;;5093123;28;20047;-66
2022/03/18 12:49:57;;;;;;;14.88;4.78;;;15.20;99.90;;;;;;5110887;28;20083;-66
2022/03/18 12:52:23;;;;;;;23.02;5.28;;;15.20;99.90;;;;;;5111464;28;20253;-66
2022/03/18 12:55:03;;;;;;;15.70;5.20;;;15.10;99.90;;;;;;5059663;28;20051;-65
2022/03/18 12:57:32;;;;;;;20.70;5.03;;;15.10;99.90;;;;;;5089157;28;20053;-66
2022/03/18 12:59:58;;;;;;;15.93;4.47;;;15.00;99.90;;;;;;5089394;28;20062;-66
2022/03/18 13:02:24;;;;;;;15.40;5.10;;;15.00;99.90;;;;;;5090305;28;20131;-65
2022/03/18 13:04:57;;;;;;;17.55;5.38;;;14.90;99.90;;;;;;5089975;28;20409;-65
2022/03/18 13:07:27;;;;;;;17.15;5.22;;;14.90;99.90;;;;;;5090663;28;20048;-64
2022/03/18 13:09:54;;;;;;;15.48;4.40;;;14.90;99.90;;;;;;5089019;28;20055;-64